Terminal Aerodrome Forecast
Issued by NWS Wilmington, NC

Home | Current Version | Previous Version | Text Only | Print | Product List | Glossary On
Versions: 1 2 3 4 5 6 7 8 9 10 11 12 13 14 15 16 17 18 19 20 21
045
FTUS42 KILM 211720
TAFFLO
TAF
KFLO 211720Z 2118/2218 20007KT P6SM SKC
     FM212300 19005KT P6SM SCT250
     FM221500 22008KT P6SM SCT050=

USA.gov is the U.S. government's official web portal to all federal, state and local government web resources and services.